createdAt,value
2022-11-05T00:01:31.137Z,-0.54
2022-11-05T00:04:53.303Z,-0.59
2022-11-05T00:08:14.393Z,-0.58
2022-11-05T00:11:18.624Z,-0.60
2022-11-05T00:14:40.920Z,-0.55
2022-11-05T00:17:44.087Z,-0.59
2022-11-05T00:20:48.197Z,-0.49
2022-11-05T00:24:10.303Z,-0.38
2022-11-05T00:27:13.468Z,-0.30
2022-11-05T00:30:19.355Z,-0.21
2022-11-05T00:33:22.727Z,-0.09
2022-11-05T00:36:25.636Z,0.04
2022-11-05T00:39:28.933Z,0.04
2022-11-05T00:42:50.452Z,0.14
2022-11-05T00:45:53.432Z,0.27
2022-11-05T00:49:19.784Z,0.50
2022-11-05T00:52:41.011Z,0.67
2022-11-05T00:55:46.460Z,0.85
2022-11-05T00:58:50.526Z,0.96
2022-11-05T01:01:53.622Z,0.98
2022-11-05T01:04:57.611Z,0.79
2022-11-05T01:08:01.891Z,0.66
2022-11-05T01:11:11.182Z,0.71
2022-11-05T01:14:18.994Z,0.80
2022-11-05T01:17:22.254Z,1.02
2022-11-05T01:20:25.960Z,1.28
2022-11-05T01:23:30.065Z,1.48
2022-11-05T01:26:33.791Z,1.59
2022-11-05T01:29:36.881Z,1.65
2022-11-05T01:32:40.521Z,1.73
2022-11-05T01:35:44.432Z,1.76
2022-11-05T01:38:48.259Z,1.86
2022-11-05T01:41:52.248Z,1.89
2022-11-05T01:45:15.055Z,2.10
2022-11-05T01:48:22.773Z,2.30
2022-11-05T01:51:28.779Z,2.42
2022-11-05T01:54:35.812Z,2.52
2022-11-05T01:57:39.727Z,2.77
2022-11-05T02:00:44.648Z,3.09
2022-11-05T02:03:51.281Z,3.44
2022-11-05T02:06:55.478Z,3.37
2022-11-05T02:10:10.766Z,3.74
2022-11-05T02:13:15.040Z,5.10
2022-11-05T02:16:22.929Z,5.28
2022-11-05T02:20:02.068Z,5.20
2022-11-05T02:23:42.584Z,5.01
2022-11-05T02:27:11.891Z,4.84
2022-11-05T02:30:56.470Z,4.67
2022-11-05T02:34:20.332Z,4.60
2022-11-05T02:37:50.233Z,4.71
2022-11-05T02:41:14.258Z,4.56
2022-11-05T02:44:42.246Z,4.64
2022-11-05T02:47:55.146Z,4.66
2022-11-05T02:51:13.702Z,4.52
2022-11-05T02:54:54.099Z,4.41
2022-11-05T02:58:00.278Z,4.44
2022-11-05T03:01:07.410Z,4.50
2022-11-05T03:04:13.555Z,4.57
2022-11-05T03:07:53.766Z,4.64
2022-11-05T03:11:05.632Z,4.72
2022-11-05T03:14:35.626Z,4.90
2022-11-05T03:17:56.769Z,4.87
2022-11-05T03:21:41.344Z,4.87
2022-11-05T03:24:49.739Z,4.69
2022-11-05T03:27:58.105Z,4.51
2022-11-05T03:31:03.582Z,4.61
2022-11-05T03:34:09.490Z,4.92
2022-11-05T03:37:12.790Z,4.99
2022-11-05T03:40:19.163Z,4.96
2022-11-05T03:43:25.273Z,5.16
2022-11-05T03:46:36.351Z,5.44
2022-11-05T03:50:13.343Z,5.19
2022-11-05T03:53:23.241Z,5.03
2022-11-05T03:56:29.980Z,5.32
2022-11-05T03:59:41.206Z,5.58
2022-11-05T04:02:44.299Z,5.70
2022-11-05T04:06:08.426Z,5.97
2022-11-05T04:09:30.373Z,6.11
2022-11-05T04:12:52.645Z,6.07
2022-11-05T04:16:16.179Z,6.10
2022-11-05T04:19:39.106Z,6.04
2022-11-05T04:23:01.692Z,6.06
2022-11-05T04:26:04.715Z,5.93
2022-11-05T04:29:27.094Z,5.98
2022-11-05T04:32:30.790Z,6.25
2022-11-05T04:35:40.389Z,6.24
2022-11-05T04:38:43.992Z,6.12
2022-11-05T04:41:49.110Z,5.82
2022-11-05T04:44:52.962Z,5.58
2022-11-05T04:47:56.247Z,5.46
2022-11-05T04:50:59.983Z,5.44
2022-11-05T04:54:03.876Z,5.54
2022-11-05T04:57:06.995Z,5.46
2022-11-05T05:00:11.936Z,5.24
2022-11-05T05:03:15.063Z,5.06
2022-11-05T05:06:20.109Z,4.78
2022-11-05T09:19:07.726Z,2.15
2022-11-05T09:22:13.495Z,2.14
2022-11-05T09:25:17.404Z,2.16
2022-11-05T09:28:23.619Z,2.22
2022-11-05T09:31:27.339Z,2.22
2022-11-05T09:34:31.188Z,2.24
2022-11-05T09:37:36.440Z,2.20
2022-11-05T09:40:56.292Z,2.24
2022-11-05T09:44:16.189Z,2.21
2022-11-05T09:47:25.379Z,2.17
2022-11-05T09:50:54.492Z,2.16
2022-11-05T09:54:00.037Z,2.13
2022-11-05T09:57:06.701Z,2.11
2022-11-05T10:00:17.112Z,2.09
2022-11-05T10:03:25.708Z,1.99
2022-11-05T10:06:29.961Z,1.94
2022-11-05T10:09:48.636Z,1.90
2022-11-05T10:12:56.927Z,1.86
2022-11-05T10:16:28.696Z,1.83
2022-11-05T10:19:47.133Z,1.76
2022-11-05T10:22:57.345Z,1.73
2022-11-05T10:26:08.401Z,1.67
2022-11-05T10:29:21.095Z,1.66
2022-11-05T10:32:39.284Z,1.70
2022-11-05T10:35:53.165Z,1.76
2022-11-05T10:39:15.606Z,1.78
2022-11-05T10:42:33.164Z,1.76
2022-11-05T10:45:47.604Z,1.73
2022-11-05T10:49:01.524Z,1.68
2022-11-05T10:52:42.060Z,1.60
2022-11-05T10:55:51.131Z,1.50
2022-11-05T10:58:56.938Z,1.44
2022-11-05T11:02:17.222Z,1.41
2022-11-05T11:05:44.437Z,1.34
2022-11-05T11:08:49.476Z,1.30
2022-11-05T11:12:21.557Z,1.26
2022-11-05T11:15:33.172Z,1.21
2022-11-05T11:18:42.905Z,1.19
2022-11-05T11:21:46.222Z,1.16
2022-11-05T11:24:54.407Z,1.12
2022-11-05T11:28:04.047Z,1.08
2022-11-05T11:31:17.650Z,1.04
2022-11-05T11:34:41.047Z,0.99
2022-11-05T11:37:46.506Z,0.89
2022-11-05T11:40:49.583Z,0.88
2022-11-05T11:44:18.793Z,0.94
2022-11-05T11:47:23.327Z,0.92
2022-11-05T11:50:39.876Z,0.94
2022-11-05T11:53:43.285Z,1.03
2022-11-05T11:56:48.957Z,1.10
2022-11-05T12:00:11.706Z,1.05
2022-11-05T12:03:22.510Z,1.04
2022-11-05T12:06:42.425Z,0.99
2022-11-05T12:10:04.188Z,0.99
2022-11-05T12:13:20.355Z,0.94
2022-11-05T12:16:48.263Z,0.92
2022-11-05T12:20:15.959Z,0.93
2022-11-05T12:23:44.107Z,0.87
2022-11-05T12:27:10.365Z,0.80
2022-11-05T12:30:21.144Z,0.73
2022-11-05T12:33:36.291Z,0.77
2022-11-05T12:37:05.119Z,0.96
2022-11-05T12:40:34.589Z,0.86
2022-11-05T12:44:01.197Z,0.79
2022-11-05T12:47:16.105Z,0.76
2022-11-05T12:50:40.256Z,0.63
2022-11-05T12:54:00.927Z,0.63
2022-11-05T12:57:05.943Z,0.70
2022-11-05T13:00:22.997Z,0.69
2022-11-05T13:03:49.439Z,0.65
2022-11-05T13:06:55.759Z,0.60
2022-11-05T13:10:07.809Z,0.58
2022-11-05T13:13:11.021Z,0.53
2022-11-05T13:16:23.080Z,0.50
2022-11-05T13:19:28.391Z,0.46
2022-11-05T13:22:52.558Z,0.42
2022-11-05T13:26:04.237Z,0.37
2022-11-05T13:29:42.005Z,0.40
2022-11-05T13:32:50.836Z,0.36
2022-11-05T13:36:21.482Z,0.34
2022-11-05T13:39:30.722Z,0.28
2022-11-05T13:42:51.977Z,0.19
2022-11-05T13:46:14.205Z,0.15
2022-11-05T13:49:48.008Z,0.15
2022-11-05T13:53:33.089Z,0.09
2022-11-05T13:57:03.720Z,0.02
2022-11-05T14:00:12.346Z,-0.03
2022-11-05T14:03:20.836Z,-0.04
2022-11-05T14:06:32.585Z,-0.11
2022-11-05T14:09:37.505Z,-0.12
2022-11-05T14:12:41.339Z,-0.14
2022-11-05T14:16:09.632Z,-0.11
2022-11-05T14:19:22.132Z,-0.09
2022-11-05T14:22:34.376Z,-0.13
2022-11-05T14:25:38.060Z,-0.16
2022-11-05T14:28:48.251Z,-0.15
2022-11-05T14:32:08.381Z,-0.17
2022-11-05T14:35:18.548Z,-0.15
2022-11-05T14:38:27.449Z,-0.15
2022-11-05T14:41:30.953Z,-0.18
2022-11-05T14:44:36.822Z,-0.17
2022-11-05T14:47:52.540Z,-0.13
2022-11-05T14:50:56.414Z,-0.12
2022-11-05T14:54:06.095Z,-0.14
2022-11-05T14:57:15.475Z,-0.13
2022-11-05T15:00:37.106Z,-0.08
2022-11-05T15:03:46.683Z,-0.02
2022-11-05T15:07:05.441Z,0.08
2022-11-05T15:10:16.790Z,0.14
2022-11-05T15:13:58.422Z,0.16
2022-11-05T15:17:23.044Z,0.13
2022-11-05T15:20:49.960Z,0.11
2022-11-05T15:23:57.687Z,0.11
2022-11-05T15:27:06.869Z,0.11
2022-11-05T15:30:22.840Z,0.20
2022-11-05T15:33:26.657Z,0.18
2022-11-05T15:36:31.935Z,0.21
2022-11-05T15:39:50.486Z,0.16
2022-11-05T15:43:18.305Z,0.15
2022-11-05T15:46:30.388Z,0.20
2022-11-05T15:49:34.571Z,0.19
2022-11-05T15:52:44.621Z,0.26
2022-11-05T15:55:58.818Z,0.25
2022-11-05T15:59:16.864Z,0.18
2022-11-05T16:02:30.321Z,0.19
2022-11-05T16:05:44.593Z,0.22
2022-11-05T16:08:51.506Z,0.25
2022-11-05T16:12:21.366Z,0.27
2022-11-05T16:15:30.091Z,0.28
2022-11-05T16:18:39.400Z,0.30
2022-11-05T16:22:04.292Z,0.36
2022-11-05T16:25:30.168Z,0.37
2022-11-05T16:28:33.970Z,0.40
2022-11-05T16:31:37.797Z,0.47
2022-11-05T16:34:46.250Z,0.53
2022-11-05T16:37:52.215Z,0.58
2022-11-05T16:40:56.579Z,0.66
2022-11-05T16:44:00.875Z,0.63
2022-11-05T16:47:04.928Z,0.61
2022-11-05T16:50:22.623Z,0.71
2022-11-05T16:53:26.569Z,0.63
2022-11-05T16:56:30.249Z,0.63
2022-11-05T16:59:34.786Z,0.67
2022-11-05T17:02:38.551Z,0.73
2022-11-05T17:05:42.799Z,0.74
2022-11-05T17:08:47.584Z,0.68
2022-11-05T17:11:50.978Z,0.70
2022-11-05T17:14:54.661Z,0.74
2022-11-05T17:17:59.715Z,0.79
2022-11-05T17:21:03.534Z,0.78
2022-11-05T17:24:08.113Z,0.81
2022-11-05T17:27:11.755Z,0.89
2022-11-05T17:30:16.416Z,0.91
2022-11-05T17:33:20.083Z,0.90
2022-11-05T17:36:24.409Z,0.91
2022-11-05T17:39:31.643Z,0.88
2022-11-05T17:42:35.884Z,0.90
2022-11-05T17:45:48.832Z,0.92
2022-11-05T17:48:52.889Z,0.95
2022-11-05T17:51:56.609Z,0.92
2022-11-05T17:54:59.523Z,0.97
2022-11-05T17:58:03.523Z,1.00
2022-11-05T18:01:08.688Z,0.99
2022-11-05T18:04:13.544Z,1.02
2022-11-05T18:07:17.387Z,1.08
2022-11-05T18:10:21.481Z,1.01
2022-11-05T18:13:25.312Z,1.02
2022-11-05T18:16:28.948Z,1.06
2022-11-05T18:19:32.880Z,1.01
2022-11-05T18:22:40.595Z,1.05
2022-11-05T18:25:44.316Z,1.04
2022-11-05T18:28:48.116Z,1.00
2022-11-05T18:31:51.151Z,0.98
2022-11-05T18:34:55.219Z,0.97
2022-11-05T18:37:58.969Z,0.94
2022-11-05T18:41:08.498Z,0.92
2022-11-05T18:44:15.349Z,0.89
2022-11-05T18:47:18.711Z,0.86
2022-11-05T18:50:21.753Z,0.86
2022-11-05T18:53:25.760Z,0.86
2022-11-05T18:56:28.929Z,0.87
2022-11-05T18:59:38.170Z,0.92
2022-11-05T19:02:43.412Z,0.92
2022-11-05T19:05:47.828Z,0.86
2022-11-05T19:08:51.805Z,0.87
2022-11-05T19:11:57.957Z,0.91
2022-11-05T19:15:03.035Z,1.01
2022-11-05T19:18:07.333Z,0.92
2022-11-05T19:21:13.307Z,0.92
2022-11-05T19:24:17.841Z,0.91
2022-11-05T19:27:21.461Z,1.01
2022-11-05T19:30:26.653Z,1.01
2022-11-05T19:33:30.976Z,1.00
2022-11-05T19:36:35.197Z,0.97
2022-11-05T19:39:40.834Z,0.99
2022-11-05T19:42:44.494Z,0.97
2022-11-05T19:45:48.210Z,0.97
2022-11-05T19:48:52.361Z,0.98
2022-11-05T19:51:56.614Z,0.98
2022-11-05T19:55:00.377Z,0.95
2022-11-05T19:58:04.632Z,0.92
2022-11-05T20:01:09.123Z,0.89
2022-11-05T20:04:12.943Z,0.88
2022-11-05T20:07:16.656Z,0.87
2022-11-05T20:10:20.633Z,0.90
2022-11-05T20:13:24.710Z,0.94
2022-11-05T20:16:30.680Z,0.92
2022-11-05T20:19:34.711Z,0.94
2022-11-05T20:22:38.946Z,0.96
2022-11-05T20:25:43.320Z,1.00
2022-11-05T20:28:47.028Z,1.05
2022-11-05T20:31:50.561Z,1.05
2022-11-05T20:34:54.493Z,1.00
2022-11-05T20:37:57.405Z,0.99
2022-11-05T20:41:01.318Z,0.95
2022-11-05T20:44:05.182Z,0.98
2022-11-05T20:47:09.166Z,0.96
2022-11-05T20:50:13.017Z,0.91
2022-11-05T20:53:17.359Z,0.87
2022-11-05T20:56:23.415Z,0.85
2022-11-05T20:59:27.477Z,0.86
2022-11-05T21:02:30.877Z,0.89
2022-11-05T21:05:35.762Z,0.90
2022-11-05T21:08:39.561Z,0.91
2022-11-05T21:12:02.230Z,0.80
2022-11-05T21:15:06.925Z,0.73
2022-11-05T21:18:11.035Z,0.72
2022-11-05T21:21:19.814Z,0.68
2022-11-05T21:24:23.733Z,0.67
2022-11-05T21:27:27.655Z,0.66
2022-11-05T21:30:31.273Z,0.61
2022-11-05T21:33:35.009Z,0.53
2022-11-05T21:36:39.181Z,0.51
2022-11-05T21:39:42.227Z,0.43
2022-11-05T21:42:45.873Z,0.42
2022-11-05T21:45:49.419Z,0.42
2022-11-05T21:48:52.793Z,0.47
2022-11-05T21:52:14.899Z,0.45
2022-11-05T21:55:41.637Z,0.47
2022-11-05T21:59:03.394Z,0.50
2022-11-05T22:02:08.701Z,0.52
2022-11-05T22:05:12.036Z,0.52
2022-11-05T22:08:15.878Z,0.58
2022-11-05T22:11:19.344Z,0.59
2022-11-05T22:14:22.784Z,0.58
2022-11-05T22:17:26.342Z,0.59
2022-11-05T22:20:29.647Z,0.52
2022-11-05T22:23:33.098Z,0.46
2022-11-05T22:26:40.762Z,0.43
2022-11-05T22:29:44.813Z,0.37
2022-11-05T22:32:47.733Z,0.30
2022-11-05T22:35:51.431Z,0.16
2022-11-05T22:38:56.737Z,0.11
2022-11-05T22:42:05.716Z,0.05
2022-11-05T22:45:11.817Z,-0.01
2022-11-05T22:48:15.830Z,-0.02
2022-11-05T22:51:24.240Z,-0.01
2022-11-05T22:54:27.707Z,-0.05
2022-11-05T22:57:30.696Z,-0.09
2022-11-05T23:00:37.287Z,-0.13
2022-11-05T23:03:43.584Z,-0.11
2022-11-05T23:07:05.811Z,-0.16
2022-11-05T23:10:45.277Z,-0.24
2022-11-05T23:13:49.243Z,-0.28
2022-11-05T23:17:10.621Z,-0.35
2022-11-05T23:20:38.319Z,-0.38
2022-11-05T23:24:00.030Z,-0.41
2022-11-05T23:27:04.031Z,-0.44
2022-11-05T23:30:12.166Z,-0.50
2022-11-05T23:33:17.044Z,-0.50
2022-11-05T23:36:38.146Z,-0.53
2022-11-05T23:39:42.981Z,-0.54
2022-11-05T23:43:05.837Z,-0.58
2022-11-05T23:46:28.473Z,-0.54
2022-11-05T23:49:32.183Z,-0.54
2022-11-05T23:52:35.840Z,-0.49
2022-11-05T23:55:40.224Z,-0.47
2022-11-05T23:58:43.852Z,-0.47
